createdAt,value
2023-09-07T00:01:42.665Z,95892.00
2023-09-07T00:04:14.384Z,95893.16
2023-09-07T00:06:46.160Z,95889.31
2023-09-07T00:09:19.381Z,95890.16
2023-09-07T00:11:51.103Z,95890.56
2023-09-07T00:14:22.672Z,95887.53
2023-09-07T00:16:54.469Z,95885.25
2023-09-07T00:19:26.459Z,95886.06
2023-09-07T00:21:59.988Z,95882.59
2023-09-07T00:24:32.522Z,95882.63
2023-09-07T00:27:06.921Z,95884.19
2023-09-07T00:29:41.230Z,95885.75
2023-09-07T00:32:12.889Z,95880.78
2023-09-07T00:34:44.514Z,95873.91
2023-09-07T00:37:16.152Z,95876.97
2023-09-07T00:39:47.688Z,95874.69
2023-09-07T00:42:19.227Z,95876.25
2023-09-07T00:44:50.847Z,95872.78
2023-09-07T00:47:24.129Z,95871.28
2023-09-07T00:49:55.908Z,95886.25
2023-09-07T00:52:28.549Z,95883.59
2023-09-07T00:55:02.217Z,95886.66
2023-09-07T00:57:34.051Z,95887.44
2023-09-07T01:00:07.717Z,95878.22
2023-09-07T01:02:39.402Z,95882.06
2023-09-07T01:05:11.029Z,95878.25
2023-09-07T01:07:52.625Z,95872.50
2023-09-07T01:10:24.277Z,95877.13
2023-09-07T01:12:55.834Z,95881.34
2023-09-07T01:15:27.487Z,95872.94
2023-09-07T01:18:14.122Z,95874.06
2023-09-07T01:20:53.627Z,95868.34
2023-09-07T01:23:25.411Z,95871.00
2023-09-07T01:25:57.129Z,95864.13
2023-09-07T01:28:29.247Z,95863.34
2023-09-07T01:31:02.311Z,95861.78
2023-09-07T01:33:33.970Z,95862.19
2023-09-07T01:36:06.032Z,95862.56
2023-09-07T01:38:37.617Z,95868.34
2023-09-07T01:41:09.193Z,95865.28
2023-09-07T01:43:40.828Z,95867.56
2023-09-07T01:46:12.635Z,95866.44
2023-09-07T01:48:44.326Z,95862.56
2023-09-07T01:51:15.951Z,95866.78
2023-09-07T01:53:50.427Z,95864.50
2023-09-07T01:56:22.176Z,95862.19
2023-09-07T01:58:53.977Z,95864.88
2023-09-07T02:01:28.147Z,95863.34
2023-09-07T02:03:59.706Z,95859.13
2023-09-07T02:06:31.274Z,95862.56
2023-09-07T02:09:05.370Z,95860.28
2023-09-07T02:11:37.035Z,95854.53
2023-09-07T02:14:10.278Z,95861.41
2023-09-07T02:16:43.145Z,95861.03
2023-09-07T02:19:15.167Z,95862.19
2023-09-07T02:21:46.691Z,95862.94
2023-09-07T02:24:18.252Z,95860.63
2023-09-07T02:26:49.879Z,95861.41
2023-09-07T02:29:21.575Z,95860.25
2023-09-07T02:31:53.168Z,95866.78
2023-09-07T02:34:24.736Z,95870.22
2023-09-07T02:36:58.072Z,95873.28
2023-09-07T02:39:30.239Z,95869.84
2023-09-07T02:42:01.759Z,95872.53
2023-09-07T02:44:33.383Z,95870.59
2023-09-07T02:47:05.146Z,95864.47
2023-09-07T02:49:36.730Z,95867.16
2023-09-07T02:52:08.623Z,95865.25
2023-09-07T02:54:40.227Z,95872.16
2023-09-07T02:57:11.787Z,95862.56
2023-09-07T02:59:43.338Z,95865.25
2023-09-07T03:02:14.915Z,95867.16
2023-09-07T03:04:46.513Z,95868.69
2023-09-07T03:07:18.170Z,95872.13
2023-09-07T03:09:49.828Z,95865.97
2023-09-07T03:12:21.640Z,95869.44
2023-09-07T03:14:53.420Z,95865.97
2023-09-07T03:17:25.122Z,95869.78
2023-09-07T03:19:57.027Z,95869.03
2023-09-07T03:22:30.448Z,95869.03
2023-09-07T03:25:02.290Z,95869.38
2023-09-07T03:27:33.877Z,95874.38
2023-09-07T03:30:06.725Z,95865.53
2023-09-07T03:32:38.376Z,95866.28
2023-09-07T03:35:11.023Z,95868.94
2023-09-07T03:37:43.726Z,95869.31
2023-09-07T03:40:15.638Z,95871.22
2023-09-07T03:42:47.632Z,95869.66
2023-09-07T03:45:19.202Z,95875.41
2023-09-07T03:47:50.797Z,95875.78
2023-09-07T03:50:22.578Z,95874.25
2023-09-07T03:52:54.199Z,95875.03
2023-09-07T03:55:25.796Z,95877.28
2023-09-07T03:57:57.430Z,95881.50
2023-09-07T04:00:28.973Z,95879.53
2023-09-07T04:03:00.621Z,95878.78
2023-09-07T04:05:32.299Z,95879.16
2023-09-07T04:08:04.329Z,95883.00
2023-09-07T04:10:39.478Z,95885.66
2023-09-07T04:13:11.046Z,95882.56
2023-09-07T04:15:46.631Z,95887.16
2023-09-07T04:18:18.306Z,95882.16
2023-09-07T04:20:49.906Z,95884.44
2023-09-07T04:23:21.545Z,95889.81
2023-09-07T04:25:53.114Z,95886.38
2023-09-07T04:28:24.620Z,95886.00
2023-09-07T04:30:56.156Z,95880.25
2023-09-07T04:33:27.787Z,95880.22
2023-09-07T04:36:14.315Z,95884.81
2023-09-07T04:38:45.930Z,95883.28
2023-09-07T04:41:17.532Z,95886.34
2023-09-07T04:43:49.387Z,95894.00
2023-09-07T04:46:24.147Z,95891.28
2023-09-07T04:48:55.778Z,95895.50
2023-09-07T04:51:27.375Z,95891.28
2023-09-07T04:53:58.925Z,95891.22
2023-09-07T04:56:31.027Z,95893.91
2023-09-07T04:59:02.565Z,95890.84
2023-09-07T05:01:34.226Z,95893.53
2023-09-07T05:04:06.072Z,95893.53
2023-09-07T05:06:39.721Z,95898.88
2023-09-07T05:09:11.322Z,95890.84
2023-09-07T05:11:42.872Z,95893.22
2023-09-07T05:14:14.798Z,95894.00
2023-09-07T05:16:46.576Z,95898.59
2023-09-07T05:19:18.303Z,95897.50
2023-09-07T05:21:50.036Z,95895.59
2023-09-07T05:24:21.586Z,95906.38
2023-09-07T05:26:56.078Z,95901.38
2023-09-07T05:29:27.614Z,95911.00
2023-09-07T05:32:01.163Z,95909.47
2023-09-07T05:34:34.578Z,95911.44
2023-09-07T05:37:06.154Z,95911.44
2023-09-07T05:39:37.693Z,95913.78
2023-09-07T05:42:09.240Z,95921.84
2023-09-07T05:44:41.000Z,95916.91
2023-09-07T05:47:12.634Z,95920.38
2023-09-07T05:49:44.286Z,95918.84
2023-09-07T05:52:15.894Z,95918.13
2023-09-07T05:54:47.486Z,95918.91
2023-09-07T05:57:19.066Z,95923.91
2023-09-07T05:59:50.619Z,95923.16
2023-09-07T06:02:22.211Z,95916.66
2023-09-07T06:04:55.607Z,95928.97
2023-09-07T06:07:27.232Z,95926.28
2023-09-07T06:09:59.906Z,95924.00
2023-09-07T06:12:31.488Z,95927.06
2023-09-07T06:15:04.054Z,95930.94
2023-09-07T06:17:35.663Z,95928.22
2023-09-07T06:20:08.190Z,95929.41
2023-09-07T06:22:39.834Z,95922.88
2023-09-07T06:25:11.472Z,95919.03
2023-09-07T06:27:43.071Z,95921.72
2023-09-07T06:30:14.639Z,95914.78
2023-09-07T06:32:46.611Z,95911.31
2023-09-07T06:35:19.536Z,95910.16
2023-09-07T06:37:51.262Z,95914.75
2023-09-07T06:40:23.394Z,95908.59
2023-09-07T06:42:55.115Z,95907.44
2023-09-07T06:45:26.881Z,95917.03
2023-09-07T06:47:58.544Z,95911.59
2023-09-07T06:50:30.250Z,95912.75
2023-09-07T06:53:01.803Z,95911.59
2023-09-07T06:55:33.357Z,95911.94
2023-09-07T06:58:04.933Z,95913.03
2023-09-07T07:00:36.484Z,95912.28
2023-09-07T07:03:08.134Z,95909.19
2023-09-07T07:05:40.120Z,95917.66
2023-09-07T07:08:11.782Z,95925.69
2023-09-07T07:10:43.505Z,95917.59
2023-09-07T07:13:15.238Z,95928.28
2023-09-07T07:15:46.830Z,95927.47
2023-09-07T07:18:18.897Z,95930.13
2023-09-07T07:20:51.884Z,95926.59
2023-09-07T07:23:23.420Z,95926.56
2023-09-07T07:25:55.297Z,95935.75
2023-09-07T07:28:27.017Z,95935.31
2023-09-07T07:30:58.595Z,95936.78
2023-09-07T07:33:30.603Z,95931.72
2023-09-07T07:36:02.604Z,95933.19
2023-09-07T07:38:34.280Z,95933.53
2023-09-07T07:41:06.132Z,95936.53
2023-09-07T07:43:37.774Z,95935.72
2023-09-07T07:46:09.873Z,95931.84
2023-09-07T07:48:41.442Z,95934.84
2023-09-07T07:51:12.944Z,95932.44
2023-09-07T07:53:44.612Z,95935.06
2023-09-07T07:56:19.754Z,95927.69
2023-09-07T07:58:51.597Z,95939.94
2023-09-07T08:01:23.218Z,95937.13
2023-09-07T08:03:55.330Z,95939.81
2023-09-07T08:06:26.799Z,95932.34
2023-09-07T08:08:58.346Z,95929.94
2023-09-07T08:11:29.863Z,95925.16
2023-09-07T08:14:02.991Z,95935.13
2023-09-07T08:16:34.868Z,95929.56
2023-09-07T08:19:06.639Z,95930.19
2023-09-07T08:21:38.751Z,95930.84
2023-09-07T08:24:10.254Z,95924.94
2023-09-07T08:26:41.852Z,95922.06
2023-09-07T08:29:13.384Z,95923.13
2023-09-07T08:31:46.635Z,95917.94
2023-09-07T08:34:20.395Z,95927.44
2023-09-07T08:36:54.024Z,95926.16
2023-09-07T08:39:25.658Z,95921.81
2023-09-07T08:42:01.850Z,95924.25
2023-09-07T08:44:38.060Z,95925.59
2023-09-07T08:47:10.100Z,95918.81
2023-09-07T08:49:44.830Z,95918.28
2023-09-07T08:52:16.962Z,95917.72
2023-09-07T08:54:49.216Z,95917.47
2023-09-07T08:57:22.602Z,95919.16
2023-09-07T08:59:54.822Z,95914.34
2023-09-07T09:02:26.818Z,95922.25
2023-09-07T09:04:59.097Z,95920.22
2023-09-07T09:07:30.503Z,95910.69
2023-09-07T09:10:09.145Z,95913.28
2023-09-07T09:12:48.211Z,95907.25
2023-09-07T09:15:19.798Z,95914.72
2023-09-07T09:17:51.624Z,95919.19
2023-09-07T09:20:24.547Z,95921.47
2023-09-07T09:22:57.297Z,95915.03
2023-09-07T09:25:28.970Z,95913.59
2023-09-07T09:28:00.599Z,95907.47
2023-09-07T09:30:32.207Z,95907.97
2023-09-07T09:33:06.762Z,95899.66
2023-09-07T09:35:42.038Z,95899.03
2023-09-07T09:38:14.538Z,95896.59
2023-09-07T09:40:46.517Z,95898.53
2023-09-07T09:43:19.717Z,95901.19
2023-09-07T09:45:52.620Z,95898.75
2023-09-07T09:48:24.374Z,95899.66
2023-09-07T09:50:56.866Z,95901.31
2023-09-07T09:53:28.739Z,95898.03
2023-09-07T09:56:00.253Z,95902.78
2023-09-07T09:58:34.775Z,95899.97
2023-09-07T10:01:09.123Z,95889.06
2023-09-07T10:03:49.828Z,95893.53
2023-09-07T10:06:29.878Z,95889.72
2023-09-07T10:09:12.100Z,95891.44
2023-09-07T10:11:43.694Z,95895.47
2023-09-07T10:14:15.724Z,95894.28
2023-09-07T10:16:57.138Z,95895.47
2023-09-07T10:19:28.939Z,95887.84
2023-09-07T10:22:00.507Z,95895.13
2023-09-07T10:24:37.311Z,95885.38
2023-09-07T10:27:12.357Z,95884.44
2023-09-07T10:29:44.247Z,95881.41
2023-09-07T10:32:20.167Z,95883.69
2023-09-07T10:34:52.335Z,95878.78
2023-09-07T10:37:30.072Z,95872.09
2023-09-07T10:40:01.746Z,95871.50
2023-09-07T10:42:34.214Z,95874.66
2023-09-07T10:45:17.540Z,95869.44
2023-09-07T10:47:49.308Z,95878.72
2023-09-07T10:50:21.123Z,95878.97
2023-09-07T10:52:52.759Z,95872.66
2023-09-07T10:55:24.368Z,95872.56
2023-09-07T10:57:55.888Z,95872.59
2023-09-07T11:00:27.572Z,95876.25
2023-09-07T11:02:59.289Z,95867.59
2023-09-07T11:05:30.966Z,95870.69
2023-09-07T11:08:02.597Z,95874.22
2023-09-07T11:10:37.826Z,95874.16
2023-09-07T11:13:10.615Z,95868.41
2023-09-07T11:15:43.732Z,95865.56
2023-09-07T11:18:21.497Z,95877.56
2023-09-07T11:20:54.408Z,95867.41
2023-09-07T11:23:26.092Z,95866.50
2023-09-07T11:25:57.763Z,95866.03
2023-09-07T11:28:30.952Z,95863.63
2023-09-07T11:31:05.713Z,95863.59
2023-09-07T11:33:37.321Z,95864.97
2023-09-07T11:36:08.982Z,95863.72
2023-09-07T11:38:44.259Z,95861.13
2023-09-07T11:41:15.847Z,95857.88
2023-09-07T11:43:47.370Z,95862.41
2023-09-07T11:46:19.053Z,95861.06
2023-09-07T11:48:50.549Z,95851.00
2023-09-07T11:51:22.788Z,95846.53
2023-09-07T11:53:54.371Z,95853.03
2023-09-07T11:56:26.088Z,95844.78
2023-09-07T11:58:57.655Z,95847.75
2023-09-07T12:01:29.426Z,95849.44
2023-09-07T12:04:00.898Z,95847.25
2023-09-07T12:06:33.164Z,95855.47
2023-09-07T12:09:07.762Z,95849.78
2023-09-07T12:11:39.419Z,95851.41
2023-09-07T12:14:11.126Z,95852.38
2023-09-07T12:16:42.816Z,95844.91
2023-09-07T12:19:14.504Z,95843.25
2023-09-07T12:21:47.795Z,95848.59
2023-09-07T12:24:20.357Z,95845.56
2023-09-07T12:26:51.987Z,95848.50
2023-09-07T12:29:23.657Z,95840.34
2023-09-07T12:31:55.124Z,95836.88
2023-09-07T12:34:26.695Z,95837.41
2023-09-07T12:36:58.305Z,95831.13
2023-09-07T12:39:30.673Z,95818.47
2023-09-07T12:42:02.719Z,95822.91
2023-09-07T12:44:34.278Z,95824.78
2023-09-07T12:47:06.175Z,95834.06
2023-09-07T12:49:37.729Z,95825.00
2023-09-07T12:52:10.732Z,95828.19
2023-09-07T12:54:43.511Z,95815.28
2023-09-07T12:57:15.184Z,95818.41
2023-09-07T12:59:46.544Z,95818.69
2023-09-07T13:02:18.218Z,95815.25
2023-09-07T13:04:49.804Z,95822.16
2023-09-07T13:07:21.471Z,95815.06
2023-09-07T13:09:52.876Z,95817.22
2023-09-07T13:12:24.547Z,95819.41
2023-09-07T13:14:56.157Z,95813.78
2023-09-07T13:17:27.712Z,95822.09
2023-09-07T13:19:59.573Z,95816.50
2023-09-07T13:22:31.197Z,95822.34
2023-09-07T13:25:02.666Z,95820.56
2023-09-07T13:27:34.327Z,95809.63
2023-09-07T13:30:06.864Z,95812.50
2023-09-07T13:32:39.137Z,95807.41
2023-09-07T13:35:10.691Z,95811.59
2023-09-07T13:37:42.375Z,95809.53
2023-09-07T13:40:16.090Z,95811.25
2023-09-07T13:42:49.348Z,95811.31
2023-09-07T13:45:21.948Z,95802.88
2023-09-07T13:47:53.582Z,95798.22
2023-09-07T13:50:25.079Z,95801.81
2023-09-07T13:52:57.387Z,95799.09
2023-09-07T13:55:29.331Z,95801.38
2023-09-07T13:58:01.107Z,95796.94
2023-09-07T14:00:32.659Z,95792.75
2023-09-07T14:03:04.624Z,95792.56
2023-09-07T14:05:36.207Z,95796.22
2023-09-07T14:08:07.837Z,95791.78
2023-09-07T14:10:39.418Z,95789.94
2023-09-07T14:13:10.987Z,95789.25
2023-09-07T14:15:43.185Z,95790.78
2023-09-07T14:18:14.829Z,95784.56
2023-09-07T14:20:46.458Z,95789.25
2023-09-07T14:23:18.095Z,95785.09
2023-09-07T14:25:49.677Z,95780.16
2023-09-07T14:28:21.510Z,95784.38
2023-09-07T14:30:55.253Z,95785.91
2023-09-07T14:33:27.249Z,95779.09
2023-09-07T14:35:58.973Z,95775.25
2023-09-07T14:38:30.843Z,95777.34
2023-09-07T14:41:04.348Z,95778.47
2023-09-07T14:43:36.109Z,95781.25
2023-09-07T14:46:07.756Z,95786.13
2023-09-07T14:48:39.313Z,95785.28
2023-09-07T14:51:11.033Z,95782.59
2023-09-07T14:53:42.591Z,95778.03
2023-09-07T14:56:14.290Z,95789.97
2023-09-07T14:58:45.846Z,95790.78
2023-09-07T15:01:17.551Z,95786.53
2023-09-07T15:03:49.115Z,95784.09
2023-09-07T15:06:20.759Z,95774.13
2023-09-07T15:08:52.348Z,95786.16
2023-09-07T15:11:24.546Z,95773.66
2023-09-07T15:13:56.541Z,95782.84
2023-09-07T15:16:28.166Z,95781.84
2023-09-07T15:18:59.726Z,95780.72
2023-09-07T15:21:31.350Z,95775.78
2023-09-07T15:24:02.944Z,95772.72
2023-09-07T15:26:44.617Z,95781.06
2023-09-07T15:29:16.282Z,95776.97
2023-09-07T15:31:47.902Z,95777.34
2023-09-07T15:34:19.616Z,95784.78
2023-09-07T15:36:51.164Z,95780.16
2023-09-07T15:39:22.782Z,95780.84
2023-09-07T15:41:55.400Z,95790.22
2023-09-07T15:44:29.112Z,95781.41
2023-09-07T15:47:00.765Z,95789.00
2023-09-07T15:49:32.317Z,95783.84
2023-09-07T15:52:04.065Z,95784.41
2023-09-07T15:54:35.876Z,95791.06
2023-09-07T15:57:07.684Z,95788.16
2023-09-07T15:59:39.268Z,95776.22
2023-09-07T16:02:10.829Z,95779.00
2023-09-07T16:04:42.401Z,95781.47
2023-09-07T16:07:14.037Z,95781.22
2023-09-07T16:09:45.948Z,95790.13
2023-09-07T16:12:17.496Z,95788.72
2023-09-07T16:14:49.112Z,95786.44
2023-09-07T16:17:20.779Z,95787.47
2023-09-07T16:19:53.418Z,95784.09
2023-09-07T16:22:25.089Z,95785.72
2023-09-07T16:24:56.712Z,95791.97
2023-09-07T16:27:28.220Z,95789.47
2023-09-07T16:29:59.761Z,95799.88
2023-09-07T16:32:31.304Z,95793.72
2023-09-07T16:35:02.952Z,95802.13
2023-09-07T16:37:34.589Z,95795.50
2023-09-07T16:40:07.508Z,95801.50
2023-09-07T16:42:39.089Z,95796.97
2023-09-07T16:45:11.055Z,95800.16
2023-09-07T16:47:42.605Z,95801.88
2023-09-07T16:50:14.774Z,95800.28
2023-09-07T16:52:46.343Z,95794.22
2023-09-07T16:55:17.975Z,95802.09
2023-09-07T16:57:49.686Z,95804.78
2023-09-07T17:00:21.898Z,95806.06
2023-09-07T17:02:53.516Z,95808.03
2023-09-07T17:05:25.111Z,95811.16
2023-09-07T17:07:56.495Z,95813.25
2023-09-07T17:10:28.640Z,95812.56
2023-09-07T17:13:00.226Z,95809.59
2023-09-07T17:15:31.838Z,95806.03
2023-09-07T17:18:03.945Z,95809.22
2023-09-07T17:20:37.643Z,95817.97
2023-09-07T17:23:11.195Z,95813.94
2023-09-07T17:25:42.898Z,95819.09
2023-09-07T17:28:14.342Z,95808.16
2023-09-07T17:30:46.016Z,95808.81
2023-09-07T17:33:17.456Z,95819.13
2023-09-07T17:35:49.440Z,95810.31
2023-09-07T17:38:21.068Z,95814.38
2023-09-07T17:40:52.742Z,95813.31
2023-09-07T17:43:24.272Z,95816.31
2023-09-07T17:45:55.949Z,95816.59
2023-09-07T17:48:27.387Z,95815.03
2023-09-07T17:51:00.335Z,95809.34
2023-09-07T17:53:35.783Z,95815.97
2023-09-07T17:56:12.376Z,95814.84
2023-09-07T17:58:44.285Z,95813.56
2023-09-07T18:01:18.954Z,95825.31
2023-09-07T18:03:50.621Z,95824.31
2023-09-07T18:06:22.403Z,95827.59
2023-09-07T18:08:54.003Z,95831.09
2023-09-07T18:11:25.579Z,95835.34
2023-09-07T18:14:07.952Z,95833.31
2023-09-07T18:16:42.024Z,95828.38
2023-09-07T18:19:14.143Z,95828.81
2023-09-07T18:21:45.893Z,95831.66
2023-09-07T18:24:17.486Z,95839.19
2023-09-07T18:26:49.210Z,95839.88
2023-09-07T18:29:20.792Z,95837.91
2023-09-07T18:31:52.372Z,95830.53
2023-09-07T18:34:24.212Z,95834.22
2023-09-07T18:36:56.066Z,95837.50
2023-09-07T18:39:27.698Z,95833.44
2023-09-07T18:41:59.291Z,95832.75
2023-09-07T18:44:30.941Z,95830.38
2023-09-07T18:47:02.587Z,95835.25
2023-09-07T18:49:34.812Z,95840.47
2023-09-07T18:52:06.677Z,95839.59
2023-09-07T18:54:38.226Z,95838.16
2023-09-07T18:57:09.877Z,95840.63
2023-09-07T18:59:41.524Z,95837.59
2023-09-07T19:02:14.834Z,95837.03
2023-09-07T19:04:48.756Z,95832.56
2023-09-07T19:07:23.269Z,95836.56
2023-09-07T19:09:56.544Z,95832.47
2023-09-07T19:12:28.084Z,95833.78
2023-09-07T19:14:59.782Z,95835.94
2023-09-07T19:17:31.405Z,95836.00
2023-09-07T19:20:03.197Z,95831.19
2023-09-07T19:22:36.455Z,95832.81
2023-09-07T19:25:08.342Z,95833.31
2023-09-07T19:27:40.736Z,95831.56
2023-09-07T19:30:15.187Z,95833.59
2023-09-07T19:32:46.825Z,95830.56
2023-09-07T19:35:20.915Z,95821.81
2023-09-07T19:37:53.989Z,95827.69
2023-09-07T19:40:25.557Z,95830.56
2023-09-07T19:42:57.088Z,95832.25
2023-09-07T19:45:28.629Z,95826.66
2023-09-07T19:48:00.361Z,95830.22
2023-09-07T19:50:31.959Z,95842.75
2023-09-07T19:53:03.798Z,95834.38
2023-09-07T19:55:36.404Z,95841.06
2023-09-07T19:58:08.016Z,95843.00
2023-09-07T20:00:39.649Z,95850.13
2023-09-07T20:03:11.876Z,95841.63
2023-09-07T20:05:43.510Z,95837.66
2023-09-07T20:08:15.042Z,95841.78
2023-09-07T20:10:46.829Z,95843.13
2023-09-07T20:13:18.358Z,95836.66
2023-09-07T20:15:49.958Z,95835.63
2023-09-07T20:18:21.910Z,95846.63
2023-09-07T20:20:53.668Z,95842.03
2023-09-07T20:23:25.481Z,95843.66
2023-09-07T20:25:57.220Z,95838.75
2023-09-07T20:28:30.959Z,95841.13
2023-09-07T20:31:05.466Z,95844.59
2023-09-07T20:33:37.153Z,95846.34
2023-09-07T20:36:08.740Z,95839.88
2023-09-07T20:38:40.342Z,95841.94
2023-09-07T20:41:13.465Z,95843.13
2023-09-07T20:43:45.159Z,95843.69
2023-09-07T20:46:16.949Z,95834.88
2023-09-07T20:48:48.634Z,95843.13
2023-09-07T20:51:20.320Z,95836.56
2023-09-07T20:53:51.947Z,95841.38
2023-09-07T20:56:23.577Z,95846.78
2023-09-07T20:58:55.194Z,95843.31
2023-09-07T21:01:26.810Z,95843.91
2023-09-07T21:03:58.534Z,95841.28
2023-09-07T21:06:30.322Z,95843.72
2023-09-07T21:09:01.902Z,95847.72
2023-09-07T21:11:33.538Z,95838.97
2023-09-07T21:14:06.042Z,95846.06
2023-09-07T21:16:37.774Z,95837.38
2023-09-07T21:19:09.419Z,95835.19
2023-09-07T21:21:40.949Z,95839.44
2023-09-07T21:24:12.497Z,95836.06
2023-09-07T21:26:44.129Z,95837.75
2023-09-07T21:29:15.734Z,95840.47
2023-09-07T21:31:47.376Z,95830.84
2023-09-07T21:34:18.932Z,95825.53
2023-09-07T21:36:50.549Z,95840.31
2023-09-07T21:39:22.257Z,95830.41
2023-09-07T21:41:55.835Z,95831.97
2023-09-07T21:44:27.416Z,95838.16
2023-09-07T21:46:59.013Z,95842.84
2023-09-07T21:49:30.554Z,95840.63
2023-09-07T21:52:02.831Z,95836.78
2023-09-07T21:54:34.435Z,95836.84
2023-09-07T21:57:06.264Z,95829.19
2023-09-07T21:59:38.301Z,95830.38
2023-09-07T22:02:10.240Z,95837.28
2023-09-07T22:04:41.796Z,95837.69
2023-09-07T22:07:13.511Z,95837.69
2023-09-07T22:09:45.314Z,95835.47
2023-09-07T22:12:17.499Z,95841.72
2023-09-07T22:14:49.113Z,95833.31
2023-09-07T22:17:20.782Z,95834.56
2023-09-07T22:19:52.418Z,95837.31
2023-09-07T22:22:30.197Z,95833.88
2023-09-07T22:25:01.747Z,95838.94
2023-09-07T22:27:33.357Z,95835.47
2023-09-07T22:30:05.603Z,95842.06
2023-09-07T22:32:37.728Z,95839.81
2023-09-07T22:35:09.769Z,95838.31
2023-09-07T22:37:41.325Z,95841.75
2023-09-07T22:40:17.009Z,95840.22
2023-09-07T22:42:48.794Z,95838.00
2023-09-07T22:45:20.387Z,95829.16
2023-09-07T22:47:51.905Z,95836.50
2023-09-07T22:50:23.574Z,95827.72
2023-09-07T22:52:55.667Z,95827.69
2023-09-07T22:55:43.891Z,95832.34
2023-09-07T22:58:21.812Z,95829.22
2023-09-07T23:00:53.543Z,95830.81
2023-09-07T23:03:25.257Z,95832.06
2023-09-07T23:05:57.228Z,95833.25
2023-09-07T23:08:32.755Z,95835.56
2023-09-07T23:11:05.627Z,95832.50
2023-09-07T23:13:37.642Z,95834.88
2023-09-07T23:16:09.791Z,95829.56
2023-09-07T23:18:41.319Z,95831.50
2023-09-07T23:21:13.018Z,95836.88
2023-09-07T23:23:44.590Z,95836.91
2023-09-07T23:26:20.281Z,95833.09
2023-09-07T23:28:51.908Z,95837.38
2023-09-07T23:31:23.573Z,95832.03
2023-09-07T23:33:55.181Z,95825.53
2023-09-07T23:36:26.817Z,95824.03
2023-09-07T23:38:58.680Z,95820.59
2023-09-07T23:41:30.369Z,95820.63
2023-09-07T23:44:01.915Z,95822.53
2023-09-07T23:46:33.626Z,95819.47
2023-09-07T23:49:05.344Z,95819.88
2023-09-07T23:51:36.967Z,95825.69
2023-09-07T23:54:09.152Z,95831.41
2023-09-07T23:56:40.572Z,95822.94
2023-09-07T23:59:12.328Z,95828.31
